Time;durP1;ratioP1;P1;durP2;ratioP2;P2;SDS_P1;SDS_P2;PMS_P1;PMS_P2;Temp;Humidity;BMP_temperature;BMP_pressure;BME280_temperature;BME280_humidity;BME280_pressure;Samples;Min_cycle;Max_cycle;Signal;HPM_P1;HPM_P2
2022/09/25 00:00:29;;;;;;;;;;;19.70;91.80;;;;;;5074131;28;20242;-62
2022/09/25 00:02:55;;;;;;;;;;;19.40;91.70;;;;;;5072564;28;19925;-62
2022/09/25 00:05:20;;;;;;;;;;;19.60;91.80;;;;;;5063612;28;19933;-62
2022/09/25 00:07:46;;;;;;;;;;;19.70;91.70;;;;;;5071596;28;20382;-62
2022/09/25 00:10:11;;;;;;;;;;;19.70;91.70;;;;;;5067203;28;20382;-62
2022/09/25 00:12:37;;;;;;;;;;;19.70;91.70;;;;;;5067476;28;20011;-62
2022/09/25 00:15:03;;;;;;;;;;;19.80;91.80;;;;;;5070543;28;19925;-63
2022/09/25 00:17:29;;;;;;;;;;;20.00;91.90;;;;;;5074198;28;19930;-63
2022/09/25 00:19:55;;;;;;;;;;;19.60;91.70;;;;;;5071691;28;19925;-61
2022/09/25 00:22:21;;;;;;;;;;;19.50;91.70;;;;;;5063653;28;19925;-61
2022/09/25 00:24:47;;;;;;;;;;;19.50;91.70;;;;;;5072461;28;19935;-62
2022/09/25 00:27:13;;;;;;;;;;;19.70;91.70;;;;;;5062026;28;20283;-62
2022/09/25 00:29:38;;;;;;;;;;;19.70;91.80;;;;;;5053344;28;20391;-62
2022/09/25 00:32:04;;;;;;;;;;;19.40;91.70;;;;;;5061201;28;19924;-62
2022/09/25 00:34:30;;;;;;;;;;;19.60;91.80;;;;;;5074755;28;19983;-62
2022/09/25 00:36:56;;;;;;;;;;;19.70;91.80;;;;;;5071342;28;19967;-68
2022/09/25 00:39:21;;;;;;;;;;;19.70;91.80;;;;;;5072382;28;19924;-62
2022/09/25 00:41:47;;;;;;;;;;;19.60;91.70;;;;;;5072662;28;19924;-62
2022/09/25 00:44:31;;;;;;;;;;;19.50;91.80;;;;;;5072173;28;19924;-63
2022/09/25 00:46:57;;;;;;;;;;;19.50;91.70;;;;;;5065871;28;19925;-62
2022/09/25 00:49:23;;;;;;;;;;;19.70;91.80;;;;;;5066900;28;19986;-62
2022/09/25 00:51:49;;;;;;;;;;;19.60;91.70;;;;;;5072321;28;19925;-62
2022/09/25 00:54:15;;;;;;;;;;;;;;;;;;5072415;28;19920;-64
2022/09/25 00:56:42;;;;;;;;;;;19.50;91.70;;;;;;5069206;28;19932;-62
2022/09/25 00:59:08;;;;;;;;;;;19.50;91.70;;;;;;5055049;28;19932;-69
2022/09/25 01:01:34;;;;;;;;;;;19.70;91.70;;;;;;5073417;28;19924;-62
2022/09/25 01:03:59;;;;;;;;;;;19.70;91.80;;;;;;5073949;28;20280;-61
2022/09/25 01:06:25;;;;;;;;;;;19.50;91.70;;;;;;5069811;28;19925;-62
2022/09/25 01:08:51;;;;;;;;;;;19.70;91.70;;;;;;5070341;28;19929;-62
2022/09/25 01:11:16;;;;;;;;;;;19.80;91.70;;;;;;5071031;28;20017;-62
2022/09/25 01:13:42;;;;;;;;;;;19.50;91.60;;;;;;5071281;28;20009;-62
2022/09/25 01:16:08;;;;;;;;;;;;;;;;;;5070193;28;19924;-62
2022/09/25 01:18:40;;;;;;;;;;;19.50;91.60;;;;;;5072002;28;19999;-62
2022/09/25 01:21:12;;;;;;;;;;;19.70;91.70;;;;;;5072933;28;19935;-62
2022/09/25 01:23:38;;;;;;;;;;;19.60;91.60;;;;;;5058864;28;19921;-61
2022/09/25 01:26:12;;;;;;;;;;;19.60;91.60;;;;;;5074469;28;19971;-61
2022/09/25 01:28:41;;;;;;;;;;;19.90;91.70;;;;;;5070152;28;20011;-62
2022/09/25 01:31:08;;;;;;;;;;;19.40;91.60;;;;;;5073112;28;19925;-62
2022/09/25 01:33:41;;;;;;;;;;;19.60;91.60;;;;;;5071869;28;19947;-62
2022/09/25 01:36:10;;;;;;;;;;;19.60;91.60;;;;;;5054238;28;19947;-62
2022/09/25 01:38:37;;;;;;;;;;;;;;;;;;5070883;28;19928;-62
2022/09/25 01:41:10;;;;;;;;;;;19.70;91.60;;;;;;5053554;28;19972;-62
2022/09/25 01:43:51;;;;;;;;;;;19.50;91.60;;;;;;5058675;28;20026;-62
2022/09/25 01:46:20;;;;;;;;;;;19.70;91.60;;;;;;5071783;28;19936;-62
2022/09/25 01:48:48;;;;;;;;;;;19.50;91.60;;;;;;5072987;28;19929;-62
2022/09/25 01:51:14;;;;;;;;;;;;;;;;;;5070334;28;19925;-64
2022/09/25 01:53:56;;;;;;;;;;;19.50;91.60;;;;;;5072975;28;19970;-62
2022/09/25 01:56:31;;;;;;;;;;;19.50;91.60;;;;;;5071387;28;20019;-61
2022/09/25 01:59:07;;;;;;;;;;;19.30;91.50;;;;;;5071794;28;20332;-61
2022/09/25 02:01:34;;;;;;;;;;;19.60;91.60;;;;;;5070446;28;20259;-62
2022/09/25 02:04:02;;;;;;;;;;;19.60;91.60;;;;;;5070766;28;19981;-62
2022/09/25 02:06:28;;;;;;;;;;;19.40;91.50;;;;;;5071548;28;19975;-62
2022/09/25 02:08:59;;;;;;;;;;;19.40;91.50;;;;;;5070057;28;19964;-63
2022/09/25 02:11:27;;;;;;;;;;;19.30;91.50;;;;;;5069553;28;19924;-62
2022/09/25 02:13:54;;;;;;;;;;;19.50;91.50;;;;;;5069924;28;19953;-63
2022/09/25 02:16:30;;;;;;;;;;;19.50;91.50;;;;;;5069668;28;20012;-62
2022/09/25 02:21:40;;;;;;;;;;;19.50;91.50;;;;;;5070596;28;19931;-62
2022/09/25 02:24:14;;;;;;;;;;;19.30;91.40;;;;;;5072397;28;20445;-62
2022/09/25 02:26:40;;;;;;;;;;;19.50;91.50;;;;;;5066939;28;20310;-61
2022/09/25 02:29:07;;;;;;;;;;;19.60;91.50;;;;;;5071638;28;19928;-62
2022/09/25 02:31:42;;;;;;;;;;;19.30;91.40;;;;;;5074936;28;19929;-62
2022/09/25 02:34:08;;;;;;;;;;;19.60;91.50;;;;;;5077022;28;19924;-62
2022/09/25 02:36:33;;;;;;;;;;;19.50;91.50;;;;;;5074839;28;20423;-62
2022/09/25 02:38:59;;;;;;;;;;;19.40;91.50;;;;;;5071936;28;19963;-63
2022/09/25 02:41:37;;;;;;;;;;;19.40;91.50;;;;;;5073333;28;20011;-61
2022/09/25 02:44:02;;;;;;;;;;;19.30;91.50;;;;;;5074517;28;20015;-61
2022/09/25 02:46:32;;;;;;;;;;;19.30;91.50;;;;;;5074876;28;20085;-62
2022/09/25 02:49:37;;;;;;;;;;;19.60;91.50;;;;;;5075779;28;20033;-62
2022/09/25 02:52:04;;;;;;;;;;;19.40;91.40;;;;;;5010977;28;19949;-61
2022/09/25 02:54:30;;;;;;;;;;;19.50;91.40;;;;;;4997230;28;19925;-62
2022/09/25 02:57:00;;;;;;;;;;;19.40;91.30;;;;;;4997851;28;19930;-62
2022/09/25 02:59:27;;;;;;;;;;;19.50;91.30;;;;;;5009878;28;20291;-62
2022/09/25 03:01:53;;;;;;;;;;;19.50;91.30;;;;;;4994139;28;19934;-61
2022/09/25 03:04:18;;;;;;;;;;;19.50;91.30;;;;;;5003547;28;19933;-62
2022/09/25 03:06:44;;;;;;;;;;;19.50;91.30;;;;;;5009456;28;20034;-62
2022/09/25 03:09:10;;;;;;;;;;;;;;;;;;4994702;28;19926;-61
2022/09/25 03:11:39;;;;;;;;;;;19.50;91.30;;;;;;4994468;28;20383;-61
2022/09/25 03:14:05;;;;;;;;;;;19.40;91.20;;;;;;4995707;28;19925;-61
2022/09/25 03:16:31;;;;;;;;;;;19.20;91.20;;;;;;5002984;28;20419;-62
2022/09/25 03:18:56;;;;;;;;;;;19.50;91.20;;;;;;5006999;28;19926;-61
2022/09/25 03:21:22;;;;;;;;;;;;;;;;;;5008587;28;19922;-62
2022/09/25 03:23:48;;;;;;;;;;;19.40;91.20;;;;;;5062027;28;19970;-62
2022/09/25 03:26:14;;;;;;;;;;;;;;;;;;5072930;28;19924;-64
2022/09/25 03:28:39;;;;;;;;;;;19.50;91.20;;;;;;5062613;28;20047;-62
2022/09/25 03:31:06;;;;;;;;;;;19.40;91.20;;;;;;5070659;28;20445;-62
2022/09/25 03:33:35;;;;;;;;;;;19.40;91.20;;;;;;5074962;28;20298;-62
2022/09/25 03:36:20;;;;;;;;;;;19.40;91.10;;;;;;5071833;28;19924;-62
2022/09/25 03:38:47;;;;;;;;;;;19.20;91.10;;;;;;5071570;28;19973;-62
2022/09/25 03:41:13;;;;;;;;;;;;;;;;;;5074306;28;19971;-63
2022/09/25 03:43:39;;;;;;;;;;;19.40;91.10;;;;;;5054586;28;20295;-62
2022/09/25 03:46:05;;;;;;;;;;;19.40;91.10;;;;;;5059677;28;19974;-62
2022/09/25 03:48:31;;;;;;;;;;;19.40;91.00;;;;;;5073579;28;19925;-63
2022/09/25 03:50:56;;;;;;;;;;;19.40;90.90;;;;;;5068898;28;19947;-61
2022/09/25 03:53:24;;;;;;;;;;;19.30;90.90;;;;;;5073373;28;19925;-64
2022/09/25 03:55:50;;;;;;;;;;;19.20;90.90;;;;;;5074517;28;19924;-62
2022/09/25 03:58:16;;;;;;;;;;;19.40;90.90;;;;;;5072353;28;19928;-62
2022/09/25 04:00:41;;;;;;;;;;;19.30;90.80;;;;;;5072235;28;19931;-62
2022/09/25 04:03:07;;;;;;;;;;;19.30;90.80;;;;;;5074520;28;19924;-62
2022/09/25 04:05:33;;;;;;;;;;;19.20;90.80;;;;;;5073107;28;20011;-62
2022/09/25 04:08:00;;;;;;;;;;;19.50;90.80;;;;;;5066634;28;20330;-63
2022/09/25 04:10:26;;;;;;;;;;;19.30;90.70;;;;;;5072812;28;19928;-62
2022/09/25 04:12:53;;;;;;;;;;;19.10;90.70;;;;;;5072526;28;19924;-62
2022/09/25 04:15:24;;;;;;;;;;;19.30;90.70;;;;;;5073728;28;20298;-61
2022/09/25 04:17:51;;;;;;;;;;;19.40;90.70;;;;;;5067795;28;19925;-62
2022/09/25 04:20:17;;;;;;;;;;;19.30;90.70;;;;;;5068702;28;20405;-62
2022/09/25 04:22:43;;;;;;;;;;;19.10;90.60;;;;;;5071920;28;19925;-62
2022/09/25 04:25:08;;;;;;;;;;;19.40;90.70;;;;;;5071611;28;20058;-62
2022/09/25 04:27:35;;;;;;;;;;;;;;;;;;5061164;28;20383;-62
2022/09/25 04:30:01;;;;;;;;;;;;;;;;;;5060329;28;19932;-62
2022/09/25 04:35:11;;;;;;;;;;;19.10;90.70;;;;;;5073490;28;19931;-68
2022/09/25 04:37:37;;;;;;;;;;;19.20;90.70;;;;;;5074205;28;19921;-62
2022/09/25 04:40:02;;;;;;;;;;;19.20;90.60;;;;;;5063529;28;20854;-62
2022/09/25 04:42:28;;;;;;;;;;;19.40;90.70;;;;;;5073807;28;19931;-62
2022/09/25 04:44:54;;;;;;;;;;;19.10;90.60;;;;;;5069840;28;19921;-66
2022/09/25 04:47:23;;;;;;;;;;;19.30;90.70;;;;;;5059543;28;19925;-61
2022/09/25 04:49:49;;;;;;;;;;;19.10;90.60;;;;;;5071435;28;19979;-62
2022/09/25 04:52:15;;;;;;;;;;;19.30;90.30;;;;;;5060666;28;20397;-63
2022/09/25 04:54:41;;;;;;;;;;;;;;;;;;5073910;28;19924;-63
2022/09/25 04:57:08;;;;;;;;;;;19.30;90.30;;;;;;5071400;28;19927;-62
2022/09/25 04:59:33;;;;;;;;;;;19.10;90.30;;;;;;5066022;28;19931;-62
2022/09/25 05:01:59;;;;;;;;;;;19.20;90.30;;;;;;5064391;28;19920;-62
2022/09/25 05:04:25;;;;;;;;;;;19.20;90.30;;;;;;5062530;28;20279;-64
2022/09/25 05:06:51;;;;;;;;;;;19.10;90.20;;;;;;5060599;28;20012;-68
2022/09/25 05:09:16;;;;;;;;;;;19.20;90.20;;;;;;5061695;28;19925;-61
2022/09/25 05:11:42;;;;;;;;;;;19.10;90.20;;;;;;5061373;28;20557;-63
2022/09/25 05:14:08;;;;;;;;;;;19.20;90.20;;;;;;5064909;28;20293;-67
2022/09/25 05:16:34;;;;;;;;;;;;;;;;;;5062597;28;20283;-68
2022/09/25 05:18:59;;;;;;;;;;;19.30;90.20;;;;;;5061758;28;19924;-67
2022/09/25 05:21:25;;;;;;;;;;;19.20;90.20;;;;;;5061364;28;19924;-66
2022/09/25 05:23:51;;;;;;;;;;;19.20;90.10;;;;;;5060440;28;19936;-64
2022/09/25 05:26:16;;;;;;;;;;;19.40;90.20;;;;;;5055259;28;19939;-61
2022/09/25 05:28:42;;;;;;;;;;;19.20;90.10;;;;;;5058604;28;19929;-62
2022/09/25 05:31:08;;;;;;;;;;;19.30;90.20;;;;;;5056873;28;20452;-61
2022/09/25 05:33:34;;;;;;;;;;;19.30;90.10;;;;;;5061046;28;19929;-70
2022/09/25 05:36:02;;;;;;;;;;;19.40;90.20;;;;;;5057548;28;19924;-64
2022/09/25 05:38:30;;;;;;;;;;;19.00;90.10;;;;;;5058785;28;19929;-64
2022/09/25 05:40:59;;;;;;;;;;;19.00;90.00;;;;;;5057805;28;20062;-64
2022/09/25 05:43:25;;;;;;;;;;;19.30;90.10;;;;;;5059026;28;20015;-63
2022/09/25 05:45:52;;;;;;;;;;;19.20;90.10;;;;;;5058324;28;19921;-70
2022/09/25 05:48:18;;;;;;;;;;;19.10;90.00;;;;;;5060645;28;20471;-62
2022/09/25 05:50:44;;;;;;;;;;;19.10;90.10;;;;;;5057781;28;19928;-64
2022/09/25 05:53:09;;;;;;;;;;;19.20;90.00;;;;;;5060533;28;19925;-64
2022/09/25 05:55:35;;;;;;;;;;;;;;;;;;5059320;28;20014;-65
2022/09/25 05:58:01;;;;;;;;;;;19.10;90.00;;;;;;5060009;28;19967;-63
2022/09/25 06:00:27;;;;;;;;;;;19.40;90.10;;;;;;5063103;28;20056;-63
2022/09/25 06:02:53;;;;;;;;;;;19.60;90.10;;;;;;5062844;28;20450;-64
2022/09/25 06:05:18;;;;;;;;;;;19.30;89.90;;;;;;5063933;28;20030;-63
2022/09/25 06:07:45;;;;;;;;;;;19.50;89.40;;;;;;5064156;28;19929;-68
2022/09/25 06:10:10;;;;;;;;;;;19.30;90.00;;;;;;5063134;28;20011;-61
2022/09/25 06:12:36;;;;;;;;;;;19.40;90.00;;;;;;5066019;28;20003;-66
2022/09/25 06:15:02;;;;;;;;;;;19.40;89.70;;;;;;5070954;28;19982;-63
2022/09/25 06:17:28;;;;;;;;;;;19.60;89.80;;;;;;5062477;28;20018;-62
2022/09/25 06:19:55;;;;;;;;;;;19.80;89.60;;;;;;5065409;28;20321;-62
2022/09/25 06:22:20;;;;;;;;;;;19.60;86.40;;;;;;5062936;28;19921;-68
2022/09/25 06:24:47;;;;;;;;;;;19.40;85.70;;;;;;5066309;28;19931;-68
2022/09/25 06:27:13;;;;;;;;;;;19.50;85.50;;;;;;5067739;28;19960;-68
2022/09/25 06:29:39;;;;;;;;;;;19.40;85.40;;;;;;5066262;28;20373;-68
2022/09/25 06:32:04;;;;;;;;;;;19.30;85.30;;;;;;5066659;28;19924;-68
2022/09/25 06:34:30;;;;;;;;;;;18.90;85.20;;;;;;5067151;28;19967;-63
2022/09/25 06:36:56;;;;;;;;;;;18.80;85.20;;;;;;5066614;28;19928;-63
2022/09/25 06:39:21;;;;;;;;;;;18.80;85.20;;;;;;5066252;28;20007;-68
2022/09/25 06:41:47;;;;;;;;;;;18.90;85.40;;;;;;5063990;28;19929;-68
2022/09/25 06:44:13;;;;;;;;;;;;;;;;;;5067496;28;19933;-66
2022/09/25 06:46:43;;;;;;;;;;;19.00;85.50;;;;;;5064102;28;19974;-67
2022/09/25 06:49:09;;;;;;;;;;;18.90;85.40;;;;;;5064300;28;19928;-68
2022/09/25 06:51:35;;;;;;;;;;;19.10;85.70;;;;;;5071765;28;19935;-67
2022/09/25 06:54:01;;;;;;;;;;;19.10;85.80;;;;;;5067274;28;19932;-63
2022/09/25 06:56:27;;;;;;;;;;;19.30;85.90;;;;;;5066859;28;20384;-67
2022/09/25 06:58:53;;;;;;;;;;;19.30;85.90;;;;;;5064948;28;19932;-62
2022/09/25 07:01:18;;;;;;;;;;;19.40;85.90;;;;;;5065105;28;19939;-62
2022/09/25 07:03:44;;;;;;;;;;;19.60;85.60;;;;;;5066782;28;19964;-63
2022/09/25 07:06:30;;;;;;;;;;;19.60;85.30;;;;;;5065450;28;20394;-62
2022/09/25 07:08:56;;;;;;;;;;;19.60;85.10;;;;;;5065891;28;19983;-66
2022/09/25 07:11:22;;;;;;;;;;;19.60;84.80;;;;;;5063329;28;20009;-62
2022/09/25 07:13:53;;;;;;;;;;;19.70;84.80;;;;;;5064694;28;19925;-64
2022/09/25 07:16:20;;;;;;;;;;;19.80;84.40;;;;;;5065501;28;19928;-63
2022/09/25 07:18:46;;;;;;;;;;;19.80;85.10;;;;;;5062207;28;19987;-64
2022/09/25 07:21:13;;;;;;;;;;;19.90;85.20;;;;;;5064715;28;19928;-62
2022/09/25 07:23:40;;;;;;;;;;;20.10;85.70;;;;;;5065675;28;19939;-64
2022/09/25 07:26:10;;;;;;;;;;;20.00;85.10;;;;;;5065791;28;19978;-64
2022/09/25 07:28:37;;;;;;;;;;;20.40;85.40;;;;;;5061939;28;19925;-63
2022/09/25 07:31:12;;;;;;;;;;;20.80;85.20;;;;;;5068361;28;20290;-63
2022/09/25 07:33:38;;;;;;;;;;;20.70;83.70;;;;;;5075702;28;19921;-63
2022/09/25 07:36:04;;;;;;;;;;;20.80;84.60;;;;;;5075668;28;19970;-63
2022/09/25 07:38:29;;;;;;;;;;;21.00;84.30;;;;;;5063596;28;19921;-63
2022/09/25 07:40:56;;;;;;;;;;;21.10;83.90;;;;;;5061186;28;19939;-63
2022/09/25 07:43:21;;;;;;;;;;;21.30;84.00;;;;;;5067394;28;19924;-62
2022/09/25 07:45:53;;;;;;;;;;;21.20;83.30;;;;;;5059818;28;19921;-67
2022/09/25 07:48:22;;;;;;;;;;;21.00;82.30;;;;;;5064139;28;19932;-64
2022/09/25 07:50:48;;;;;;;;;;;21.10;83.20;;;;;;5043190;28;19931;-67
2022/09/25 07:53:17;;;;;;;;;;;21.10;83.60;;;;;;5058219;28;19924;-65
2022/09/25 07:55:43;;;;;;;;;;;21.20;83.80;;;;;;5060511;28;20618;-65
2022/09/25 07:58:10;;;;;;;;;;;21.10;83.80;;;;;;5058494;28;19935;-65
2022/09/25 08:00:36;;;;;;;;;;;21.20;83.40;;;;;;5064225;28;20953;-63
2022/09/25 08:03:02;;;;;;;;;;;21.10;83.10;;;;;;5067472;28;19924;-68
2022/09/25 08:05:28;;;;;;;;;;;21.30;83.20;;;;;;5051002;28;19925;-65
2022/09/25 08:07:54;;;;;;;;;;;21.40;83.10;;;;;;5051521;28;19946;-65
2022/09/25 08:10:19;;;;;;;;;;;21.30;83.10;;;;;;5065362;28;19933;-64
2022/09/25 08:12:45;;;;;;;;;;;21.60;83.40;;;;;;5070837;28;20302;-64
2022/09/25 08:15:13;;;;;;;;;;;21.60;83.10;;;;;;5072282;28;19961;-63
2022/09/25 08:17:39;;;;;;;;;;;21.60;83.70;;;;;;5072398;28;19975;-66
2022/09/25 08:20:06;;;;;;;;;;;21.60;83.80;;;;;;5069480;28;19929;-63
2022/09/25 08:22:32;;;;;;;;;;;21.50;83.00;;;;;;5060700;28;19931;-66
2022/09/25 08:24:59;;;;;;;;;;;21.60;83.10;;;;;;5065571;28;19953;-63
2022/09/25 08:27:25;;;;;;;;;;;21.80;82.90;;;;;;5047428;28;19929;-64
2022/09/25 08:29:51;;;;;;;;;;;21.50;82.70;;;;;;5067473;28;19932;-64
2022/09/25 08:32:16;;;;;;;;;;;21.60;82.50;;;;;;5067388;28;20037;-63
2022/09/25 08:34:42;;;;;;;;;;;21.70;82.70;;;;;;5067336;28;19932;-68
2022/09/25 08:37:09;;;;;;;;;;;21.70;82.80;;;;;;5068215;28;19932;-62
2022/09/25 08:39:34;;;;;;;;;;;21.80;82.30;;;;;;5068382;28;19929;-64
2022/09/25 08:42:00;;;;;;;;;;;21.70;82.80;;;;;;5065722;28;20389;-62
2022/09/25 08:44:29;;;;;;;;;;;22.00;83.50;;;;;;5064188;28;21150;-65
2022/09/25 08:50:05;;;;;;;;;;;22.20;82.30;;;;;;5068680;28;19975;-62
2022/09/25 08:52:31;;;;;;;;;;;22.20;83.40;;;;;;5043799;28;19932;-67
2022/09/25 08:54:57;;;;;;;;;;;22.10;82.90;;;;;;5055711;28;19931;-69
2022/09/25 08:57:23;;;;;;;;;;;22.10;83.00;;;;;;5059238;28;19982;-69
2022/09/25 08:59:50;;;;;;;;;;;22.30;83.10;;;;;;5062609;28;19997;-64
2022/09/25 09:02:16;;;;;;;;;;;22.10;83.00;;;;;;5070483;28;19928;-62
2022/09/25 09:04:44;;;;;;;;;;;22.10;82.50;;;;;;5059869;28;19971;-65
2022/09/25 09:07:10;;;;;;;;;;;22.00;82.20;;;;;;5067200;28;19969;-62
2022/09/25 09:09:40;;;;;;;;;;;21.90;82.10;;;;;;5053625;28;19960;-62
2022/09/25 09:12:13;;;;;;;;;;;22.00;81.40;;;;;;5072866;28;19979;-62
2022/09/25 09:14:42;;;;;;;;;;;21.80;81.40;;;;;;5074234;28;20282;-62
2022/09/25 09:17:16;;;;;;;;;;;21.90;81.50;;;;;;5072640;28;19924;-62
2022/09/25 09:19:44;;;;;;;;;;;21.90;81.50;;;;;;5073836;28;19931;-62
2022/09/25 09:22:11;;;;;;;;;;;22.10;83.10;;;;;;5066831;28;19931;-72
2022/09/25 09:24:39;;;;;;;;;;;22.10;82.80;;;;;;5072128;28;19963;-74
2022/09/25 09:27:24;;;;;;;;;;;22.00;81.60;;;;;;5073724;28;19936;-74
2022/09/25 09:30:08;;;;;;;;;;;22.10;81.70;;;;;;5073676;28;19978;-73
2022/09/25 09:32:34;;;;;;;;;;;21.90;82.60;;;;;;5072023;28;19931;-68
2022/09/25 09:35:19;;;;;;;;;;;21.90;82.70;;;;;;5072859;28;19924;-67
2022/09/25 09:38:06;;;;;;;;;;;21.80;81.80;;;;;;5073921;28;20015;-70
2022/09/25 09:40:35;;;;;;;;;;;21.90;81.90;;;;;;5073635;28;19929;-63
2022/09/25 09:43:11;;;;;;;;;;;21.90;81.90;;;;;;5067578;28;19971;-68
2022/09/25 09:45:43;;;;;;;;;;;21.80;81.90;;;;;;5053368;28;19929;-69
2022/09/25 09:48:15;;;;;;;;;;;22.10;83.40;;;;;;5072316;28;19975;-74
2022/09/25 09:50:40;;;;;;;;;;;22.00;82.20;;;;;;5073139;28;19928;-74
2022/09/25 09:53:11;;;;;;;;;;;21.90;83.10;;;;;;5067754;28;19978;-62
2022/09/25 09:55:47;;;;;;;;;;;22.00;83.40;;;;;;5062781;28;20267;-62
2022/09/25 09:58:17;;;;;;;;;;;21.80;82.10;;;;;;5072231;28;20409;-62
2022/09/25 10:00:43;;;;;;;;;;;22.00;83.20;;;;;;5052469;28;20440;-63
2022/09/25 10:03:11;;;;;;;;;;;22.00;83.50;;;;;;5066177;28;19936;-63
2022/09/25 10:05:41;;;;;;;;;;;22.10;83.80;;;;;;5072059;28;19950;-63
2022/09/25 10:08:10;;;;;;;;;;;22.00;82.40;;;;;;5073228;28;19925;-63
2022/09/25 10:10:43;;;;;;;;;;;21.70;82.40;;;;;;5072486;28;19928;-63
2022/09/25 10:13:22;;;;;;;;;;;21.70;82.30;;;;;;5073298;28;19931;-63
2022/09/25 10:15:52;;;;;;;;;;;21.60;82.20;;;;;;5073143;28;19932;-63
2022/09/25 10:18:18;;;;;;;;;;;21.70;82.20;;;;;;5072373;28;19969;-62
2022/09/25 10:20:45;;;;;;;;;;;21.80;83.40;;;;;;5073363;28;19964;-62
2022/09/25 10:23:30;;;;;;;;;;;21.50;83.40;;;;;;5062005;28;20382;-62
2022/09/25 10:25:56;;;;;;;;;;;21.80;82.20;;;;;;5064381;28;19936;-63
2022/09/25 10:28:25;;;;;;;;;;;21.70;83.20;;;;;;5061979;28;19925;-61
2022/09/25 10:30:51;;;;;;;;;;;21.90;82.60;;;;;;5060100;28;19925;-61
2022/09/25 10:33:19;;;;;;;;;;;22.00;83.30;;;;;;5060851;28;19932;-66
2022/09/25 10:35:45;;;;;;;;;;;21.80;83.40;;;;;;5060356;28;19935;-65
2022/09/25 10:38:26;;;;;;;;;;;21.80;83.90;;;;;;5060423;28;20015;-64
2022/09/25 10:41:01;;;;;;;;;;;21.80;82.60;;;;;;5063473;28;19932;-61
2022/09/25 10:43:27;;;;;;;;;;;22.10;82.80;;;;;;5060698;28;19984;-69
2022/09/25 10:46:12;;;;;;;;;;;22.10;83.50;;;;;;5064478;28;19987;-68
2022/09/25 10:51:23;;;;;;;;;;;22.30;83.40;;;;;;5065788;28;19977;-69
2022/09/25 10:54:07;;;;;;;;;;;22.10;84.10;;;;;;5064612;28;20465;-62
2022/09/25 10:56:34;;;;;;;;;;;22.00;82.50;;;;;;5067210;28;19924;-63
2022/09/25 10:59:01;;;;;;;;;;;22.30;83.80;;;;;;5069924;28;19925;-64
2022/09/25 11:01:45;;;;;;;;;;;22.40;83.40;;;;;;5065159;28;19963;-65
2022/09/25 11:04:13;;;;;;;;;;;22.30;82.60;;;;;;5064833;28;20303;-61
2022/09/25 11:06:42;;;;;;;;;;;22.00;83.70;;;;;;5066064;28;20007;-62
2022/09/25 11:09:11;;;;;;;;;;;22.80;84.10;;;;;;5063478;28;20025;-62
2022/09/25 11:11:38;;;;;;;;;;;22.20;83.90;;;;;;5066791;28;19943;-63
2022/09/25 11:14:04;;;;;;;;;;;22.50;83.80;;;;;;5065405;28;20136;-62
2022/09/25 11:16:49;;;;;;;;;;;22.40;83.40;;;;;;5068560;28;19924;-68
2022/09/25 11:19:21;;;;;;;;;;;22.50;82.40;;;;;;5069079;28;19931;-67
2022/09/25 11:21:48;;;;;;;;;;;22.50;82.40;;;;;;5066259;28;19967;-70
2022/09/25 11:24:23;;;;;;;;;;;22.40;83.60;;;;;;5052370;28;20026;-65
2022/09/25 11:27:01;;;;;;;;;;;22.40;82.50;;;;;;5068518;28;20290;-68
2022/09/25 11:29:43;;;;;;;;;;;22.90;82.50;;;;;;5070936;28;19932;-69
2022/09/25 11:32:18;;;;;;;;;;;22.40;82.30;;;;;;5067750;28;19954;-70
2022/09/25 11:35:05;;;;;;;;;;;22.60;82.30;;;;;;5070061;28;19924;-71
2022/09/25 11:37:34;;;;;;;;;;;22.90;82.30;;;;;;5070088;28;19936;-67
2022/09/25 11:43:05;;;;;;;;;;;22.70;83.60;;;;;;5062870;28;19925;-66
2022/09/25 11:45:35;;;;;;;;;;;22.60;83.60;;;;;;5064003;28;19928;-61
2022/09/25 11:48:05;;;;;;;;;;;22.90;83.80;;;;;;5071054;28;19928;-68
2022/09/25 11:50:37;;;;;;;;;;;22.60;83.50;;;;;;5064613;28;20365;-63
2022/09/25 11:53:22;;;;;;;;;;;22.60;82.10;;;;;;5070972;28;19986;-65
2022/09/25 11:55:51;;;;;;;;;;;22.80;82.00;;;;;;5063846;28;20310;-64
2022/09/25 11:58:17;;;;;;;;;;;22.50;81.90;;;;;;5062200;28;20475;-69
2022/09/25 12:00:46;;;;;;;;;;;22.70;82.40;;;;;;5064905;28;19925;-62
2022/09/25 12:03:12;;;;;;;;;;;22.70;81.40;;;;;;5063991;28;20371;-69
2022/09/25 12:05:37;;;;;;;;;;;22.70;82.20;;;;;;5062633;28;19928;-65
2022/09/25 12:08:03;;;;;;;;;;;22.70;82.00;;;;;;5062893;28;20409;-62
2022/09/25 12:10:47;;;;;;;;;;;22.60;81.80;;;;;;5064733;28;19924;-69
2022/09/25 12:13:30;;;;;;;;;;;22.70;80.90;;;;;;5065107;28;20224;-62
2022/09/25 12:16:04;;;;;;;;;;;22.90;82.30;;;;;;5059759;28;19978;-69
2022/09/25 12:18:36;;;;;;;;;;;22.70;80.80;;;;;;5063151;28;19978;-63
2022/09/25 12:21:16;;;;;;;;;;;22.70;80.90;;;;;;5059947;28;19931;-71
2022/09/25 12:23:56;;;;;;;;;;;22.60;81.00;;;;;;5062656;28;20335;-62
2022/09/25 12:26:28;;;;;;;;;;;22.50;80.90;;;;;;5074698;28;19924;-63
2022/09/25 12:29:04;;;;;;;;;;;22.50;81.00;;;;;;5073224;28;20364;-61
2022/09/25 12:31:33;;;;;;;;;;;22.30;80.90;;;;;;5073929;28;20008;-61
2022/09/25 12:34:03;;;;;;;;;;;21.70;80.50;;;;;;5072431;28;19924;-61
2022/09/25 12:36:36;;;;;;;;;;;22.20;82.10;;;;;;5063062;28;19924;-62
2022/09/25 12:39:07;;;;;;;;;;;22.10;80.60;;;;;;5074385;28;19924;-62
2022/09/25 12:41:35;;;;;;;;;;;22.20;82.00;;;;;;5073574;28;19970;-62
2022/09/25 12:44:17;;;;;;;;;;;22.10;82.20;;;;;;5073513;28;19924;-71
2022/09/25 12:46:45;;;;;;;;;;;22.10;81.00;;;;;;5068690;28;19978;-77
2022/09/25 12:49:17;;;;;;;;;;;22.40;82.80;;;;;;5068699;28;20424;-71
2022/09/25 12:51:49;;;;;;;;;;;22.00;81.30;;;;;;5069915;28;20050;-65
2022/09/25 12:54:23;;;;;;;;;;;22.00;81.50;;;;;;5068613;28;19939;-71
2022/09/25 12:56:50;;;;;;;;;;;22.10;81.80;;;;;;5063952;28;20003;-72
2022/09/25 12:59:24;;;;;;;;;;;21.80;83.10;;;;;;5069597;28;19924;-65
2022/09/25 13:01:51;;;;;;;;;;;21.60;83.20;;;;;;5068019;28;19974;-73
2022/09/25 13:04:34;;;;;;;;;;;21.80;83.10;;;;;;5071017;28;19928;-67
2022/09/25 13:07:08;;;;;;;;;;;21.50;82.60;;;;;;5063538;28;19932;-65
2022/09/25 13:09:38;;;;;;;;;;;21.50;82.70;;;;;;5069446;28;19924;-67
2022/09/25 13:12:07;;;;;;;;;;;21.60;84.00;;;;;;5067752;28;19931;-71
2022/09/25 13:14:35;;;;;;;;;;;21.60;84.30;;;;;;5070827;28;19932;-74
2022/09/25 13:17:01;;;;;;;;;;;21.50;84.50;;;;;;5069697;28;19931;-68
2022/09/25 13:19:27;;;;;;;;;;;21.90;84.40;;;;;;5068859;28;19932;-70
2022/09/25 13:22:12;;;;;;;;;;;23.90;85.80;;;;;;5066544;28;20348;-66
2022/09/25 13:24:42;;;;;;;;;;;21.50;83.40;;;;;;5070393;28;19935;-71
2022/09/25 13:27:08;;;;;;;;;;;21.60;84.40;;;;;;5068715;28;19929;-62
2022/09/25 13:29:35;;;;;;;;;;;21.50;84.60;;;;;;5068524;28;20283;-64
2022/09/25 13:32:01;;;;;;;;;;;21.40;84.60;;;;;;5067349;28;19978;-71
2022/09/25 13:34:27;;;;;;;;;;;21.80;85.10;;;;;;5068352;28;19928;-64
2022/09/25 13:36:54;;;;;;;;;;;21.90;84.70;;;;;;5067866;28;20275;-65
2022/09/25 13:42:25;;;;;;;;;;;21.60;85.10;;;;;;5016390;28;19932;-63
2022/09/25 13:44:59;;;;;;;;;;;21.80;83.80;;;;;;5021095;28;20771;-66
2022/09/25 13:47:28;;;;;;;;;;;21.60;83.30;;;;;;5008682;28;19984;-65
2022/09/25 13:50:07;;;;;;;;;;;21.70;84.90;;;;;;5019558;28;20443;-67
2022/09/25 13:52:39;;;;;;;;;;;21.50;83.70;;;;;;5004589;28;20044;-66
2022/09/25 13:55:11;;;;;;;;;;;21.70;83.00;;;;;;5016223;28;19984;-71
2022/09/25 13:58:00;;;;;;;;;;;21.60;83.10;;;;;;5012916;28;19932;-64
2022/09/25 14:00:27;;;;;;;;;;;21.30;83.00;;;;;;4971875;28;19933;-69
2022/09/25 14:02:59;;;;;;;;;;;21.40;84.50;;;;;;4952451;28;20408;-61
2022/09/25 14:05:26;;;;;;;;;;;21.40;84.60;;;;;;4953215;28;19977;-61
2022/09/25 14:07:54;;;;;;;;;;;21.30;84.20;;;;;;4958702;28;19926;-66
2022/09/25 14:10:20;;;;;;;;;;;21.50;84.60;;;;;;4973184;28;19926;-65
2022/09/25 14:12:46;;;;;;;;;;;21.60;84.60;;;;;;4955771;28;20276;-64
2022/09/25 14:15:22;;;;;;;;;;;21.50;84.90;;;;;;4972488;28;19926;-65
2022/09/25 14:17:49;;;;;;;;;;;21.40;84.50;;;;;;4989555;28;19926;-65
2022/09/25 14:20:34;;;;;;;;;;;21.40;84.60;;;;;;5031326;28;19929;-65
2022/09/25 14:23:03;;;;;;;;;;;21.50;83.70;;;;;;5023158;28;19998;-62
2022/09/25 14:25:33;;;;;;;;;;;21.20;84.90;;;;;;5021222;28;19932;-63
2022/09/25 14:28:00;;;;;;;;;;;21.50;83.80;;;;;;5027753;28;20430;-65
2022/09/25 14:30:28;;;;;;;;;;;21.70;85.30;;;;;;5015162;28;20387;-65
2022/09/25 14:33:19;;;;;;;;;;;21.50;85.00;;;;;;5031521;28;19932;-66
2022/09/25 14:35:48;;;;;;;;;;;21.60;83.90;;;;;;5004971;28;20012;-61
2022/09/25 14:38:13;;;;;;;;;;;21.40;85.10;;;;;;5056838;28;19964;-64
2022/09/25 14:40:40;;;;;;;;;;;21.50;85.00;;;;;;5071677;28;19978;-64
2022/09/25 14:43:39;;;;;;;;;;;21.50;85.30;;;;;;5066524;28;19921;-61
2022/09/25 14:46:09;;;;;;;;;;;21.60;84.00;;;;;;5014806;28;19965;-61
2022/09/25 14:48:36;;;;;;;;;;;21.40;83.80;;;;;;4983792;28;19953;-62